TimeEDT,TemperatureF,Dew PointF,Humidity,Sea Level PressureIn,VisibilityMPH,Wind Direction,Wind SpeedMPH,Gust SpeedMPH,PrecipitationIn,Events,Conditions,WindDirDegrees,DateUTC
12:05 AM,60.8,60.8,100,30.12,0.8,Calm,Calm,-,N/A,,Mist,0,2012-10-04 04:05:00
12:56 AM,61.0,61.0,100,30.12,0.5,Calm,Calm,-,N/A,Fog,Fog,0,2012-10-04 04:56:00
1:56 AM,61.0,61.0,100,30.12,0.5,North,3.5,-,0.00,Fog,Fog,350,2012-10-04 05:56:00
2:56 AM,61.0,61.0,100,30.11,0.5,NNW,3.5,-,N/A,Fog,Fog,330,2012-10-04 06:56:00
3:21 AM,60.8,60.8,100,30.10,1.2,Calm,Calm,-,N/A,,Overcast,0,2012-10-04 07:21:00
3:38 AM,60.8,60.8,100,30.10,2.0,Calm,Calm,-,N/A,,Overcast,0,2012-10-04 07:38:00
3:56 AM,60.1,60.1,100,30.11,2.5,NNW,4.6,-,N/A,,Overcast,340,2012-10-04 07:56:00
4:40 AM,60.8,60.8,100,30.10,1.8,North,3.5,-,N/A,,Overcast,350,2012-10-04 08:40:00
4:56 AM,60.1,60.1,100,30.11,2.0,NNW,5.8,-,N/A,,Overcast,330,2012-10-04 08:56:00
5:56 AM,60.1,60.1,100,30.11,2.5,NNW,4.6,-,N/A,,Overcast,330,2012-10-04 09:56:00
6:10 AM,60.8,60.8,100,30.11,3.0,NNW,6.9,-,N/A,,Overcast,330,2012-10-04 10:10:00
6:23 AM,60.8,60.8,100,30.11,2.5,NNW,5.8,-,N/A,,Overcast,330,2012-10-04 10:23:00
6:56 AM,60.1,60.1,100,30.11,1.5,North,6.9,-,N/A,,Overcast,350,2012-10-04 10:56:00
7:56 AM,60.1,60.1,100,30.12,0.8,NNW,5.8,-,N/A,,Mist,340,2012-10-04 11:56:00
8:56 AM,62.1,62.1,100,30.12,0.5,North,5.8,-,N/A,Fog,Fog,360,2012-10-04 12:56:00
9:56 AM,64.0,64.0,100,30.11,1.0,North,4.6,-,N/A,,Overcast,360,2012-10-04 13:56:00
10:26 AM,64.4,64.4,100,30.10,0.5,North,6.9,-,N/A,Fog,Fog,360,2012-10-04 14:26:00
10:56 AM,64.0,64.0,100,30.11,0.2,North,5.8,-,N/A,Fog,Fog,350,2012-10-04 14:56:00
11:53 AM,62.6,62.6,100,30.10,0.5,North,5.8,-,N/A,Fog,Fog,360,2012-10-04 15:53:00
11:56 AM,63.0,63.0,100,30.10,0.5,North,4.6,-,N/A,Fog,Fog,10,2012-10-04 15:56:00
12:27 PM,62.6,62.6,100,30.09,1.0,North,9.2,-,N/A,,Overcast,360,2012-10-04 16:27:00
12:56 PM,63.0,63.0,100,30.09,1.0,North,10.4,-,N/A,,Overcast,360,2012-10-04 16:56:00
1:44 PM,62.6,62.6,100,30.07,0.5,North,9.2,-,N/A,Fog,Fog,360,2012-10-04 17:44:00
1:52 PM,62.6,62.6,100,30.07,0.2,North,11.5,-,N/A,Fog,Fog,350,2012-10-04 17:52:00
1:56 PM,62.1,62.1,100,30.07,0.2,North,9.2,-,N/A,Fog,Fog,360,2012-10-04 17:56:00
2:10 PM,62.6,62.6,100,30.06,0.5,NNE,9.2,-,N/A,Fog,Fog,20,2012-10-04 18:10:00
2:21 PM,62.6,62.6,100,30.06,2.0,North,8.1,-,N/A,,Overcast,360,2012-10-04 18:21:00
2:37 PM,62.6,62.6,100,30.06,1.5,North,8.1,-,N/A,,Overcast,10,2012-10-04 18:37:00
2:52 PM,62.6,62.6,100,30.05,2.0,NNE,9.2,-,N/A,,Overcast,20,2012-10-04 18:52:00
2:56 PM,62.1,62.1,100,30.06,2.0,North,6.9,-,N/A,,Overcast,10,2012-10-04 18:56:00
3:08 PM,62.6,62.6,100,30.06,5.0,North,10.4,-,N/A,,Overcast,360,2012-10-04 19:08:00
3:16 PM,62.6,62.6,100,30.06,1.8,North,9.2,-,N/A,,Overcast,360,2012-10-04 19:16:00
3:42 PM,62.6,62.6,100,30.05,0.8,North,8.1,-,N/A,,Overcast,10,2012-10-04 19:42:00
3:56 PM,61.0,61.0,100,30.05,0.8,North,9.2,-,N/A,,Mist,360,2012-10-04 19:56:00
4:56 PM,61.0,61.0,100,30.03,0.5,NNE,8.1,-,N/A,Fog,Fog,20,2012-10-04 20:56:00
5:25 PM,60.8,60.8,100,30.03,1.0,NW,5.8,-,N/A,,Overcast,320,2012-10-04 21:25:00
5:36 PM,60.8,60.8,100,30.04,0.8,NNW,5.8,-,N/A,,Overcast,330,2012-10-04 21:36:00
5:56 PM,61.0,61.0,100,30.03,0.5,North,4.6,-,N/A,Fog,Fog,360,2012-10-04 21:56:00
6:28 PM,60.8,60.8,100,30.04,1.0,North,4.6,-,N/A,,Mist,350,2012-10-04 22:28:00
6:56 PM,60.1,60.1,100,30.05,0.8,NNW,5.8,-,N/A,,Mist,330,2012-10-04 22:56:00
7:21 PM,60.8,60.8,100,30.04,1.0,NNW,6.9,-,N/A,,Mist,340,2012-10-04 23:21:00
7:56 PM,59.0,59.0,100,30.04,1.5,NNW,5.8,-,N/A,,Overcast,330,2012-10-04 23:56:00
8:38 PM,59.0,59.0,100,30.02,3.0,North,6.9,-,N/A,,Overcast,360,2012-10-05 00:38:00
8:56 PM,59.0,59.0,100,30.04,10.0,NNW,4.6,-,N/A,,Overcast,340,2012-10-05 00:56:00
10:37 PM,59.0,59.0,100,30.03,2.0,NNW,4.6,-,N/A,,Overcast,340,2012-10-05 02:37:00
10:48 PM,59.0,59.0,100,30.04,1.2,NW,6.9,-,N/A,,Overcast,310,2012-10-05 02:48:00
10:56 PM,59.0,59.0,100,30.04,1.0,NW,5.8,-,N/A,,Mist,310,2012-10-05 02:56:00
11:06 PM,59.0,59.0,100,30.03,3.0,NW,4.6,-,0.00,Rain,Light Rain,310,2012-10-05 03:06:00
11:56 PM,59.0,59.0,100,30.02,10.0,Calm,Calm,-,0.00,,Overcast,0,2012-10-05 03:56:00